createdAt,value
2022-08-17T00:01:52.099Z,98581.27
2022-08-17T00:04:24.564Z,98581.23
2022-08-17T00:06:55.305Z,98582.89
2022-08-17T00:09:26.112Z,98583.98
2022-08-17T00:12:41.774Z,98583.52
2022-08-17T00:14:50.470Z,98586.93
2022-08-17T00:17:21.620Z,98585.86
2022-08-17T00:19:52.518Z,98586.61
2022-08-17T00:22:32.061Z,98578.79
2022-08-17T00:25:09.182Z,98584.39
2022-08-17T00:27:40.267Z,98584.63
2022-08-17T00:30:14.324Z,98581.00
2022-08-17T00:33:12.568Z,98580.32
2022-08-17T00:35:39.626Z,98581.30
2022-08-17T00:38:12.243Z,98582.22
2022-08-17T00:40:46.268Z,98581.10
2022-08-17T00:43:21.907Z,98581.11
2022-08-17T00:45:52.770Z,98583.65
2022-08-17T00:48:29.883Z,98583.44
2022-08-17T00:51:08.914Z,98586.15
2022-08-17T00:53:44.938Z,98586.49
2022-08-17T00:56:22.052Z,98584.05
2022-08-17T00:58:55.790Z,98581.08
2022-08-17T01:01:27.790Z,98578.30
2022-08-17T01:04:00.004Z,98577.23
2022-08-17T01:06:32.991Z,98573.76
2022-08-17T01:09:06.037Z,98573.60
2022-08-17T01:11:38.065Z,98573.91
2022-08-17T01:14:09.493Z,98568.58
2022-08-17T01:16:41.192Z,98567.23
2022-08-17T01:19:16.998Z,98564.93
2022-08-17T01:21:56.397Z,98563.60
2022-08-17T01:24:26.009Z,98558.53
2022-08-17T01:26:57.742Z,98558.70
2022-08-17T01:29:30.867Z,98557.95
2022-08-17T01:32:05.671Z,98564.90
2022-08-17T01:34:42.831Z,98566.55
2022-08-17T01:37:15.845Z,98569.30
2022-08-17T01:39:50.648Z,98568.20
2022-08-17T01:42:27.727Z,98571.67
2022-08-17T01:45:03.700Z,98571.14
2022-08-17T01:47:36.134Z,98572.52
2022-08-17T01:50:16.901Z,98575.52
2022-08-17T01:52:49.864Z,98576.73
2022-08-17T01:55:27.406Z,98578.61
2022-08-17T01:57:58.635Z,98579.04
2022-08-17T02:00:46.813Z,98580.50
2022-08-17T02:03:21.778Z,98584.17
2022-08-17T02:05:54.383Z,98588.48
2022-08-17T02:08:39.547Z,98594.50
2022-08-17T02:11:20.023Z,98591.35
2022-08-17T02:14:02.405Z,98593.17
2022-08-17T02:16:37.744Z,98590.25
2022-08-17T02:19:11.797Z,98585.61
2022-08-17T02:21:44.390Z,98588.27
2022-08-17T02:24:58.306Z,98584.07
2022-08-17T02:27:11.378Z,98586.77
2022-08-17T02:29:42.168Z,98589.14
2022-08-17T02:32:28.256Z,98585.40
2022-08-17T02:35:00.941Z,98583.43
2022-08-17T02:37:32.786Z,98583.03
2022-08-17T02:40:04.788Z,98581.39
2022-08-17T02:42:39.749Z,98581.66
2022-08-17T02:45:14.792Z,98585.43
2022-08-17T02:47:45.755Z,98591.17
2022-08-17T02:50:19.224Z,98593.65
2022-08-17T02:52:51.553Z,98595.20
2022-08-17T02:55:37.682Z,98596.61
2022-08-17T02:58:10.737Z,98604.48
2022-08-17T03:00:44.213Z,98603.73
2022-08-17T03:03:18.963Z,98607.61
2022-08-17T03:05:53.227Z,98607.30
2022-08-17T03:08:25.608Z,98604.96
2022-08-17T03:10:57.194Z,98604.39
2022-08-17T03:13:28.478Z,98598.65
2022-08-17T03:15:59.820Z,98597.18
2022-08-17T03:18:30.737Z,98596.55
2022-08-17T03:21:04.482Z,98600.04
2022-08-17T03:23:40.981Z,98599.88
2022-08-17T03:26:15.564Z,98602.13
2022-08-17T03:28:47.063Z,98603.27
2022-08-17T03:31:18.449Z,98603.86
2022-08-17T03:33:49.450Z,98605.13
2022-08-17T03:36:20.376Z,98610.95
2022-08-17T03:38:51.793Z,98611.22
2022-08-17T03:41:23.105Z,98608.72
2022-08-17T03:43:53.856Z,98605.52
2022-08-17T03:46:42.446Z,98604.70
2022-08-17T03:49:30.831Z,98608.74
2022-08-17T03:52:19.328Z,98610.27
2022-08-17T03:55:08.074Z,98608.88
2022-08-17T03:57:40.081Z,98610.59
2022-08-17T04:00:12.640Z,98609.85
2022-08-17T04:02:45.210Z,98614.70
2022-08-17T04:05:16.363Z,98617.20
2022-08-17T04:07:47.121Z,98616.94
2022-08-17T04:10:18.079Z,98614.10
2022-08-17T04:12:52.921Z,98616.23
2022-08-17T04:15:24.433Z,98617.91
2022-08-17T04:17:56.022Z,98615.73
2022-08-17T04:20:27.992Z,98620.27
2022-08-17T04:23:04.931Z,98621.63
2022-08-17T04:25:37.549Z,98628.60
2022-08-17T04:28:16.135Z,98633.95
2022-08-17T04:30:48.454Z,98636.41
2022-08-17T04:33:24.069Z,98635.23
2022-08-17T04:35:56.883Z,98636.16
2022-08-17T04:38:29.413Z,98632.88
2022-08-17T04:41:18.502Z,98636.98
2022-08-17T04:43:50.545Z,98638.44
2022-08-17T04:46:24.718Z,98636.92
2022-08-17T04:48:58.488Z,98637.45
2022-08-17T04:51:32.444Z,98638.40
2022-08-17T04:54:06.496Z,98637.65
2022-08-17T04:56:38.591Z,98641.45
2022-08-17T04:59:11.101Z,98637.73
2022-08-17T05:01:45.802Z,98640.11
2022-08-17T05:04:21.350Z,98642.10
2022-08-17T05:07:05.760Z,98643.89
2022-08-17T05:09:36.802Z,98641.06
2022-08-17T05:12:08.579Z,98643.58
2022-08-17T05:14:41.357Z,98641.41
2022-08-17T05:17:12.232Z,98637.63
2022-08-17T05:19:43.412Z,98637.59
2022-08-17T05:22:15.307Z,98640.72
2022-08-17T05:24:53.728Z,98641.29
2022-08-17T05:27:29.821Z,98641.31
2022-08-17T05:30:07.238Z,98641.77
2022-08-17T05:32:40.363Z,98642.13
2022-08-17T05:35:10.562Z,98640.95
2022-08-17T05:37:41.530Z,98642.60
2022-08-17T05:40:14.304Z,98644.41
2022-08-17T05:42:45.041Z,98646.35
2022-08-17T05:45:23.629Z,98650.35
2022-08-17T05:48:10.349Z,98645.73
2022-08-17T05:50:57.194Z,98645.77
2022-08-17T05:53:40.314Z,98642.90
2022-08-17T05:56:29.754Z,98642.05
2022-08-17T05:59:12.513Z,98639.32
2022-08-17T06:01:49.729Z,98648.75
2022-08-17T06:04:31.952Z,98650.36
2022-08-17T06:07:13.302Z,98649.02
2022-08-17T06:09:51.000Z,98649.84
2022-08-17T06:12:41.182Z,98654.30
2022-08-17T06:15:29.889Z,98661.20
2022-08-17T06:18:05.064Z,98662.33
2022-08-17T06:20:45.407Z,98662.70
2022-08-17T06:23:22.592Z,98658.50
2022-08-17T06:25:59.043Z,98663.74
2022-08-17T06:28:37.652Z,98660.29
2022-08-17T06:31:29.362Z,98656.08
2022-08-17T06:34:02.856Z,98662.71
2022-08-17T06:36:49.050Z,98666.94
2022-08-17T06:39:35.996Z,98662.08
2022-08-17T06:43:02.814Z,98660.05
2022-08-17T06:45:18.108Z,98666.77
2022-08-17T06:47:56.771Z,98664.27
2022-08-17T06:50:36.018Z,98659.51
2022-08-17T06:53:17.918Z,98659.89
2022-08-17T06:55:54.714Z,98661.20
2022-08-17T06:58:29.656Z,98661.66
2022-08-17T07:01:07.382Z,98664.73
2022-08-17T07:03:54.821Z,98661.58
2022-08-17T07:06:30.576Z,98658.77
2022-08-17T07:09:08.971Z,98655.86
2022-08-17T07:11:44.884Z,98656.95
2022-08-17T07:14:28.920Z,98661.48
2022-08-17T07:17:03.092Z,98661.77
2022-08-17T07:19:36.912Z,98665.19
2022-08-17T07:22:16.072Z,98666.58
2022-08-17T07:24:51.733Z,98666.52
2022-08-17T07:27:26.907Z,98657.73
2022-08-17T07:30:08.042Z,98660.30
2022-08-17T07:32:45.421Z,98655.23
2022-08-17T07:35:22.186Z,98658.05
2022-08-17T07:38:25.008Z,98658.82
2022-08-17T07:41:06.520Z,98662.13
2022-08-17T07:43:46.622Z,98659.27
2022-08-17T07:46:38.711Z,98663.29
2022-08-17T07:49:26.080Z,98659.33
2022-08-17T07:52:47.944Z,98653.79
2022-08-17T07:54:56.187Z,98657.64
2022-08-17T07:57:33.733Z,98662.19
2022-08-17T08:00:26.619Z,98661.00
2022-08-17T08:03:22.142Z,98659.28
2022-08-17T08:06:00.370Z,98661.63
2022-08-17T08:08:51.912Z,98661.33
2022-08-17T08:11:34.843Z,98659.98
2022-08-17T08:14:28.387Z,98663.87
2022-08-17T08:17:02.164Z,98659.89
2022-08-17T08:19:34.241Z,98658.44
2022-08-17T08:22:11.202Z,98660.17
2022-08-17T08:25:03.392Z,98663.12
2022-08-17T08:27:48.726Z,98660.98
2022-08-17T08:30:19.336Z,98662.42
2022-08-17T08:33:10.341Z,98657.84
2022-08-17T08:35:47.791Z,98661.79
2022-08-17T08:38:30.920Z,98655.58
2022-08-17T08:41:19.362Z,98659.02
2022-08-17T08:44:01.026Z,98660.70
2022-08-17T08:47:00.535Z,98661.36
2022-08-17T08:50:05.904Z,98661.36
2022-08-17T08:53:01.148Z,98650.66
2022-08-17T08:55:40.711Z,98654.71
2022-08-17T08:58:31.366Z,98651.36
2022-08-17T09:01:17.225Z,98654.75
2022-08-17T09:04:24.812Z,98655.95
2022-08-17T09:07:09.399Z,98656.73
2022-08-17T09:09:49.765Z,98656.69
2022-08-17T09:12:29.377Z,98657.29
2022-08-17T09:15:10.845Z,98655.48
2022-08-17T09:18:08.588Z,98656.90
2022-08-17T09:20:50.844Z,98656.42
2022-08-17T09:23:32.770Z,98651.84
2022-08-17T09:26:10.350Z,98651.14
2022-08-17T09:28:45.738Z,98648.09
2022-08-17T09:31:21.725Z,98648.61
2022-08-17T09:33:55.574Z,98648.63
2022-08-17T09:36:31.240Z,98648.04
2022-08-17T09:39:08.663Z,98648.90
2022-08-17T09:41:48.716Z,98647.27
2022-08-17T09:44:29.670Z,98645.39
2022-08-17T09:47:07.197Z,98645.65
2022-08-17T09:49:44.538Z,98645.41
2022-08-17T09:52:21.875Z,98649.09
2022-08-17T09:54:54.150Z,98647.70
2022-08-17T09:57:49.566Z,98642.30
2022-08-17T10:00:27.847Z,98642.72
2022-08-17T10:03:21.227Z,98639.10
2022-08-17T10:05:57.955Z,98635.83
2022-08-17T10:08:38.113Z,98637.96
2022-08-17T10:11:33.861Z,98633.80
2022-08-17T10:14:35.954Z,98632.05
2022-08-17T10:17:21.914Z,98633.04
2022-08-17T10:19:59.803Z,98638.95
2022-08-17T10:22:55.075Z,98633.13
2022-08-17T10:26:00.282Z,98635.98
2022-08-17T10:28:39.242Z,98634.02
2022-08-17T10:31:34.167Z,98631.82
2022-08-17T10:34:23.080Z,98619.20
2022-08-17T10:37:06.411Z,98625.02
2022-08-17T10:39:52.098Z,98617.41
2022-08-17T10:42:32.427Z,98617.33
2022-08-17T10:45:08.669Z,98613.32
2022-08-17T10:48:06.344Z,98613.48
2022-08-17T10:51:01.743Z,98615.01
2022-08-17T10:53:57.453Z,98614.20
2022-08-17T10:56:43.003Z,98610.66
2022-08-17T10:59:48.492Z,98608.88
2022-08-17T11:02:31.681Z,98610.16
2022-08-17T11:05:18.945Z,98608.92
2022-08-17T11:08:14.402Z,98609.02
2022-08-17T11:11:06.437Z,98603.19
2022-08-17T11:13:48.635Z,98600.08
2022-08-17T11:16:38.998Z,98604.17
2022-08-17T11:19:34.829Z,98603.19
2022-08-17T11:22:23.054Z,98605.58
2022-08-17T11:24:55.954Z,98607.11
2022-08-17T11:27:31.168Z,98604.31
2022-08-17T11:30:04.838Z,98599.47
2022-08-17T11:32:47.330Z,98598.08
2022-08-17T11:35:35.345Z,98599.36
2022-08-17T11:38:19.818Z,98588.70
2022-08-17T11:41:09.956Z,98589.92
2022-08-17T11:44:18.972Z,98589.26
2022-08-17T11:47:27.323Z,98583.58
2022-08-17T11:50:35.313Z,98587.54
2022-08-17T11:53:06.812Z,98578.69
2022-08-17T11:56:05.214Z,98581.40
2022-08-17T11:58:40.051Z,98574.83
2022-08-17T12:01:13.820Z,98577.30
2022-08-17T12:03:57.070Z,98577.66
2022-08-17T12:06:34.656Z,98576.59
2022-08-17T12:09:13.227Z,98572.90
2022-08-17T12:11:56.305Z,98570.43
2022-08-17T12:15:08.791Z,98564.52
2022-08-17T12:17:41.030Z,98565.48
2022-08-17T12:20:21.556Z,98562.02
2022-08-17T12:23:04.650Z,98561.04
2022-08-17T12:25:40.334Z,98559.40
2022-08-17T12:28:23.781Z,98557.66
2022-08-17T12:30:57.296Z,98565.54
2022-08-17T12:33:29.162Z,98566.73
2022-08-17T12:36:03.095Z,98568.30
2022-08-17T12:38:37.053Z,98566.40
2022-08-17T12:41:23.693Z,98560.33
2022-08-17T12:44:02.740Z,98557.53
2022-08-17T12:46:46.515Z,98561.61
2022-08-17T12:49:23.732Z,98560.93
2022-08-17T12:52:01.397Z,98554.36
2022-08-17T12:54:37.769Z,98557.21
2022-08-17T12:57:12.702Z,98556.20
2022-08-17T12:59:48.000Z,98556.61
2022-08-17T13:02:29.947Z,98552.77
2022-08-17T13:05:03.038Z,98547.84
2022-08-17T13:07:35.208Z,98547.55
2022-08-17T13:10:07.246Z,98545.69
2022-08-17T13:12:40.082Z,98544.42
2022-08-17T13:15:18.299Z,98541.95
2022-08-17T13:18:05.821Z,98541.39
2022-08-17T13:20:38.790Z,98536.53
2022-08-17T13:23:12.651Z,98536.52
2022-08-17T13:25:46.797Z,98541.52
2022-08-17T13:28:30.646Z,98537.17
2022-08-17T13:31:33.402Z,98534.06
2022-08-17T13:34:19.427Z,98536.36
2022-08-17T13:36:52.231Z,98533.64
2022-08-17T13:39:26.302Z,98537.08
2022-08-17T13:41:57.989Z,98535.23
2022-08-17T13:44:37.920Z,98531.04
2022-08-17T13:47:19.721Z,98535.31
2022-08-17T13:49:51.791Z,98527.75
2022-08-17T13:52:39.292Z,98529.23
2022-08-17T13:55:18.075Z,98528.23
2022-08-17T13:58:06.654Z,98526.35
2022-08-17T14:00:39.598Z,98533.65
2022-08-17T14:03:10.743Z,98530.02
2022-08-17T14:05:42.678Z,98533.05
2022-08-17T14:08:15.922Z,98531.46
2022-08-17T14:10:50.836Z,98532.37
2022-08-17T14:13:21.777Z,98530.73
2022-08-17T14:15:53.957Z,98526.36
2022-08-17T14:18:35.723Z,98528.48
2022-08-17T14:21:17.987Z,98527.66
2022-08-17T14:23:54.757Z,98527.66
2022-08-17T14:26:26.425Z,98528.23
2022-08-17T14:28:57.396Z,98524.61
2022-08-17T14:31:31.864Z,98526.46
2022-08-17T14:34:06.336Z,98523.41
2022-08-17T14:36:37.509Z,98518.23
2022-08-17T14:39:08.837Z,98513.70
2022-08-17T14:41:40.914Z,98509.91
2022-08-17T14:44:13.253Z,98512.13
2022-08-17T14:46:46.067Z,98508.02
2022-08-17T14:49:17.421Z,98506.77
2022-08-17T14:51:48.486Z,98502.23
2022-08-17T14:54:28.768Z,98504.27
2022-08-17T14:57:24.750Z,98506.81
2022-08-17T14:59:57.927Z,98512.17
2022-08-17T15:02:30.827Z,98512.84
2022-08-17T15:05:06.394Z,98514.29
2022-08-17T15:07:37.168Z,98516.25
2022-08-17T15:10:09.954Z,98524.47
2022-08-17T15:12:41.328Z,98526.36
2022-08-17T15:15:15.062Z,98527.60
2022-08-17T15:17:46.333Z,98524.73
2022-08-17T15:20:19.409Z,98525.79
2022-08-17T15:22:50.235Z,98526.11
2022-08-17T15:25:22.452Z,98528.41
2022-08-17T15:27:54.237Z,98530.30
2022-08-17T15:30:25.812Z,98525.29
2022-08-17T15:32:57.664Z,98525.58
2022-08-17T15:35:30.927Z,98527.48
2022-08-17T15:38:10.662Z,98527.13
2022-08-17T15:40:46.895Z,98528.11
2022-08-17T15:43:23.452Z,98533.77
2022-08-17T15:46:05.616Z,98539.77
2022-08-17T15:48:43.413Z,98534.60
2022-08-17T15:51:18.678Z,98533.30
2022-08-17T15:53:51.689Z,98529.33
2022-08-17T15:56:22.775Z,98526.95
2022-08-17T15:58:55.150Z,98527.27
2022-08-17T16:02:29.848Z,98526.02
2022-08-17T16:04:30.084Z,98523.08
2022-08-17T16:07:02.250Z,98522.48
2022-08-17T16:09:33.054Z,98524.14
2022-08-17T16:12:13.867Z,98522.48
2022-08-17T16:14:45.155Z,98524.54
2022-08-17T16:17:39.762Z,98521.63
2022-08-17T16:20:10.083Z,98525.33
2022-08-17T16:22:52.915Z,98530.67
2022-08-17T16:25:38.258Z,98528.60
2022-08-17T16:28:20.818Z,98526.63
2022-08-17T16:30:51.690Z,98527.17
2022-08-17T16:33:22.673Z,98527.76
2022-08-17T16:35:53.512Z,98529.81
2022-08-17T16:38:24.409Z,98517.63
2022-08-17T16:40:55.323Z,98510.15
2022-08-17T16:43:26.265Z,98507.61
2022-08-17T16:45:57.388Z,98502.45
2022-08-17T16:48:29.086Z,98500.81
2022-08-17T16:51:04.191Z,98498.37
2022-08-17T16:53:35.373Z,98492.71
2022-08-17T16:56:07.575Z,98491.83
2022-08-17T16:58:41.150Z,98488.20
2022-08-17T17:01:13.948Z,98487.89
2022-08-17T17:03:48.038Z,98486.08
2022-08-17T17:06:25.799Z,98486.58
2022-08-17T17:08:59.000Z,98489.69
2022-08-17T17:11:34.549Z,98495.21
2022-08-17T17:14:08.254Z,98499.23
2022-08-17T17:16:46.437Z,98503.11
2022-08-17T17:19:26.314Z,98502.70
2022-08-17T17:22:17.235Z,98509.50
2022-08-17T17:24:57.463Z,98506.95
2022-08-17T17:27:37.588Z,98503.42
2022-08-17T17:30:12.133Z,98499.81
2022-08-17T17:32:50.629Z,98503.77
2022-08-17T17:35:27.599Z,98509.75
2022-08-17T17:38:00.829Z,98508.77
2022-08-17T17:40:37.943Z,98510.42
2022-08-17T17:43:36.971Z,98509.47
2022-08-17T17:46:28.521Z,98519.31
2022-08-17T17:49:00.817Z,98522.51
2022-08-17T17:52:03.588Z,98525.62
2022-08-17T17:54:47.773Z,98522.00
2022-08-17T17:57:26.258Z,98520.85
2022-08-17T18:00:05.589Z,98522.24
2022-08-17T18:02:51.728Z,98517.89
2022-08-17T18:05:48.510Z,98519.05
2022-08-17T18:08:35.279Z,98526.16
2022-08-17T18:11:35.010Z,98528.08
2022-08-17T18:14:17.607Z,98531.59
2022-08-17T18:16:55.172Z,98533.15
2022-08-17T18:19:28.471Z,98529.70
2022-08-17T18:22:07.653Z,98527.82
2022-08-17T18:24:45.826Z,98528.73
2022-08-17T18:27:27.806Z,98529.73
2022-08-17T18:30:00.022Z,98532.03
2022-08-17T18:32:36.563Z,98533.04
2022-08-17T18:35:30.317Z,98529.09
2022-08-17T18:38:21.827Z,98530.77
2022-08-17T18:41:03.021Z,98540.88
2022-08-17T18:43:53.256Z,98541.37
2022-08-17T18:46:35.271Z,98548.60
2022-08-17T18:49:25.158Z,98553.94
2022-08-17T18:52:13.088Z,98562.38
2022-08-17T18:55:01.047Z,98568.63
2022-08-17T18:57:35.468Z,98569.95
2022-08-17T19:00:14.690Z,98566.76
2022-08-17T19:02:52.346Z,98570.22
2022-08-17T19:05:37.970Z,98565.30
2022-08-17T19:08:25.048Z,98562.98
2022-08-17T19:10:59.565Z,98562.09
2022-08-17T19:13:32.933Z,98556.42
2022-08-17T19:16:13.864Z,98551.50
2022-08-17T19:18:51.159Z,98550.36
2022-08-17T19:21:26.614Z,98552.66
2022-08-17T19:24:04.601Z,98552.62
2022-08-17T19:26:50.586Z,98551.53
2022-08-17T19:29:32.260Z,98550.48
2022-08-17T19:32:05.500Z,98551.26
2022-08-17T19:34:39.570Z,98552.27
2022-08-17T19:37:31.126Z,98556.48
2022-08-17T19:40:29.288Z,98549.67
2022-08-17T19:43:13.078Z,98552.27
2022-08-17T19:46:01.800Z,98548.81
2022-08-17T19:48:47.237Z,98553.00
2022-08-17T19:51:29.573Z,98552.17
2022-08-17T19:54:07.113Z,98551.11
2022-08-17T19:56:47.898Z,98552.27
2022-08-17T19:59:35.971Z,98556.20
2022-08-17T20:02:20.977Z,98557.92
2022-08-17T20:04:54.456Z,98552.92
2022-08-17T20:07:29.754Z,98556.11
2022-08-17T20:10:06.603Z,98557.67
2022-08-17T20:12:40.108Z,98557.75
2022-08-17T20:15:13.165Z,98556.54
2022-08-17T20:17:47.340Z,98559.67
2022-08-17T20:20:32.022Z,98563.77
2022-08-17T20:23:12.470Z,98562.61
2022-08-17T20:25:49.221Z,98561.14
2022-08-17T20:28:27.948Z,98558.16
2022-08-17T20:30:59.550Z,98551.37
2022-08-17T20:33:33.595Z,98549.31
2022-08-17T20:36:17.106Z,98547.58
2022-08-17T20:38:50.544Z,98545.20
2022-08-17T20:41:23.369Z,98546.69
2022-08-17T20:44:07.637Z,98546.12
2022-08-17T20:47:02.408Z,98539.05
2022-08-17T20:49:48.596Z,98540.19
2022-08-17T20:52:48.440Z,98543.29
2022-08-17T20:55:54.803Z,98540.55
2022-08-17T20:58:50.148Z,98532.77
2022-08-17T21:01:38.993Z,98536.61
2022-08-17T21:04:47.548Z,98537.77
2022-08-17T21:07:30.239Z,98533.83
2022-08-17T21:10:19.925Z,98536.54
2022-08-17T21:12:56.371Z,98536.61
2022-08-17T21:15:37.643Z,98540.23
2022-08-17T21:18:19.522Z,98538.17
2022-08-17T21:21:14.066Z,98542.52
2022-08-17T21:24:03.706Z,98547.69
2022-08-17T21:26:50.814Z,98550.13
2022-08-17T21:29:31.256Z,98555.80
2022-08-17T21:32:28.709Z,98561.86
2022-08-17T21:35:24.703Z,98569.18
2022-08-17T21:38:03.545Z,98569.90
2022-08-17T21:40:36.261Z,98572.86
2022-08-17T21:43:18.403Z,98581.40
2022-08-17T21:45:58.679Z,98586.33
2022-08-17T21:48:32.529Z,98592.08
2022-08-17T21:51:10.607Z,98591.00
2022-08-17T21:53:49.340Z,98595.60
2022-08-17T21:56:26.855Z,98596.51
2022-08-17T21:59:02.332Z,98598.91
2022-08-17T22:01:35.649Z,98594.70
2022-08-17T22:04:19.561Z,98594.94
2022-08-17T22:06:57.293Z,98595.52
2022-08-17T22:09:31.901Z,98599.21
2022-08-17T22:12:08.082Z,98597.48
2022-08-17T22:14:52.155Z,98599.95
2022-08-17T22:17:26.818Z,98604.30
2022-08-17T22:20:00.795Z,98607.59
2022-08-17T22:22:55.733Z,98605.29
2022-08-17T22:25:29.667Z,98605.29
2022-08-17T22:28:02.207Z,98604.30
2022-08-17T22:30:39.737Z,98604.54
2022-08-17T22:33:39.605Z,98600.59
2022-08-17T22:36:29.190Z,98597.53
2022-08-17T22:39:02.294Z,98595.16
2022-08-17T22:41:44.363Z,98595.16
2022-08-17T22:44:23.324Z,98598.77
2022-08-17T22:47:11.325Z,98606.73
2022-08-17T22:49:54.728Z,98607.48
2022-08-17T22:52:32.940Z,98607.64
2022-08-17T22:55:25.657Z,98610.08
2022-08-17T22:58:14.038Z,98608.36
2022-08-17T23:00:48.499Z,98607.94
2022-08-17T23:03:22.275Z,98605.07
2022-08-17T23:06:06.724Z,98596.22
2022-08-17T23:08:44.246Z,98589.83
2022-08-17T23:11:15.116Z,98582.27
2022-08-17T23:13:45.945Z,98583.77
2022-08-17T23:16:16.668Z,98577.02
2022-08-17T23:18:49.630Z,98567.41
2022-08-17T23:21:27.099Z,98564.70
2022-08-17T23:23:59.149Z,98563.88
2022-08-17T23:26:30.390Z,98561.66
2022-08-17T23:29:04.508Z,98558.66
2022-08-17T23:31:37.375Z,98557.22
2022-08-17T23:34:11.449Z,98556.73
2022-08-17T23:36:51.305Z,98556.63
2022-08-17T23:39:27.508Z,98558.20
2022-08-17T23:42:00.312Z,98555.45
2022-08-17T23:44:31.182Z,98557.26
2022-08-17T23:47:02.532Z,98555.61
2022-08-17T23:49:33.953Z,98556.91
2022-08-17T23:52:09.890Z,98555.52
2022-08-17T23:54:44.622Z,98554.88
2022-08-17T23:57:17.760Z,98558.23
2022-08-17T23:59:47.022Z,98559.14
